createdAt,value
2022-12-16T00:00:15.970Z,101036.22
2022-12-16T00:02:42.821Z,101041.72
2022-12-16T00:05:09.587Z,101050.13
2022-12-16T00:07:38.352Z,101047.03
2022-12-16T00:10:08.723Z,101047.78
2022-12-16T00:12:35.214Z,101049.28
2022-12-16T00:15:01.752Z,101059.28
2022-12-16T00:17:28.412Z,101067.06
2022-12-16T00:19:54.882Z,101066.81
2022-12-16T00:22:22.708Z,101065.69
2022-12-16T00:24:49.481Z,101066.28
2022-12-16T00:27:17.125Z,101070.53
2022-12-16T00:29:45.950Z,101055.28
2022-12-16T00:32:12.605Z,101063.00
2022-12-16T00:34:39.154Z,101052.34
2022-12-16T00:37:05.664Z,101067.06
2022-12-16T00:39:32.606Z,101066.88
2022-12-16T00:41:59.137Z,101065.88
2022-12-16T00:44:25.660Z,101053.44
2022-12-16T00:46:52.262Z,101068.16
2022-12-16T00:49:18.826Z,101068.00
2022-12-16T00:51:45.456Z,101062.59
2022-12-16T00:54:11.965Z,101059.00
2022-12-16T00:56:38.539Z,101055.31
2022-12-16T00:59:05.081Z,101053.50
2022-12-16T01:01:31.699Z,101054.38
2022-12-16T01:03:58.448Z,101064.81
2022-12-16T01:06:25.086Z,101066.69
2022-12-16T01:08:51.679Z,101071.16
2022-12-16T01:11:20.672Z,101066.91
2022-12-16T01:13:51.931Z,101078.25
2022-12-16T01:16:21.476Z,101073.03
2022-12-16T01:18:48.127Z,101077.47
2022-12-16T01:21:15.635Z,101076.56
2022-12-16T01:23:42.585Z,101085.44
2022-12-16T01:26:15.043Z,101073.84
2022-12-16T01:28:41.693Z,101082.75
2022-12-16T01:31:08.227Z,101095.94
2022-12-16T01:33:37.358Z,101083.50
2022-12-16T01:36:06.746Z,101093.81
2022-12-16T01:38:33.684Z,101091.25
2022-12-16T01:41:03.024Z,101099.88
2022-12-16T01:43:33.547Z,101099.88
2022-12-16T01:46:09.745Z,101094.00
2022-12-16T01:48:39.497Z,101115.88
2022-12-16T01:51:23.421Z,101120.28
2022-12-16T01:53:56.616Z,101116.66
2022-12-16T01:56:27.193Z,101108.63
2022-12-16T01:58:55.502Z,101118.28
2022-12-16T02:01:22.863Z,101122.63
2022-12-16T02:03:54.152Z,101121.88
2022-12-16T02:06:20.895Z,101124.38
2022-12-16T02:08:54.975Z,101122.69
2022-12-16T02:11:29.616Z,101131.25
2022-12-16T02:14:14.309Z,101135.69
2022-12-16T02:16:45.634Z,101136.47
2022-12-16T02:19:49.407Z,101137.25
2022-12-16T02:22:21.918Z,101132.66
2022-12-16T02:25:03.300Z,101137.88
2022-12-16T02:27:55.015Z,101136.72
2022-12-16T02:30:53.885Z,101137.53
2022-12-16T02:33:44.520Z,101135.53
2022-12-16T02:36:30.419Z,101134.50
2022-12-16T02:39:02.305Z,101140.59
2022-12-16T02:42:07.221Z,101135.16
2022-12-16T02:44:44.694Z,101140.47
2022-12-16T02:47:11.231Z,101144.03
2022-12-16T02:49:52.495Z,101136.06
2022-12-16T02:52:24.824Z,101140.25
2022-12-16T02:55:04.827Z,101152.44
2022-12-16T02:58:23.044Z,101154.97
2022-12-16T03:01:10.974Z,101152.22
2022-12-16T03:03:43.471Z,101145.84
2022-12-16T03:06:12.638Z,101151.06
2022-12-16T03:08:43.610Z,101132.47
2022-12-16T03:11:10.234Z,101140.28
2022-12-16T03:13:46.294Z,101149.84
2022-12-16T03:16:16.146Z,101150.72
2022-12-16T03:18:47.400Z,101150.72
2022-12-16T03:21:14.707Z,101162.09
2022-12-16T03:23:59.019Z,101162.09
2022-12-16T03:26:34.590Z,101163.69
2022-12-16T03:29:10.221Z,101157.41
2022-12-16T03:31:48.768Z,101164.38
2022-12-16T03:34:35.454Z,101172.31
2022-12-16T03:37:09.144Z,101163.69
2022-12-16T03:39:41.966Z,101164.44
2022-12-16T03:42:09.934Z,101171.44
2022-12-16T03:44:36.954Z,101192.63
2022-12-16T03:47:05.746Z,101194.22
2022-12-16T03:49:32.376Z,101186.41
2022-12-16T03:51:59.006Z,101193.13
2022-12-16T03:54:28.107Z,101194.88
2022-12-16T03:56:54.688Z,101195.66
2022-12-16T03:59:23.607Z,101194.88
2022-12-16T04:01:50.360Z,101193.91
2022-12-16T04:04:17.944Z,101212.53
2022-12-16T04:06:44.549Z,101210.97
2022-12-16T04:09:11.158Z,101223.28
2022-12-16T04:11:56.420Z,101224.22
2022-12-16T04:14:41.766Z,101221.38
2022-12-16T04:17:31.297Z,101215.50
2022-12-16T04:20:16.793Z,101218.19
2022-12-16T04:23:02.691Z,101227.63
2022-12-16T04:25:35.877Z,101231.19
2022-12-16T04:28:04.743Z,101233.72
2022-12-16T04:30:38.562Z,101228.50
2022-12-16T04:33:30.335Z,101245.09
2022-12-16T04:36:15.486Z,101236.91
2022-12-16T04:39:03.065Z,101242.22
2022-12-16T04:41:48.571Z,101248.28
2022-12-16T04:44:34.206Z,101235.16
2022-12-16T04:47:19.225Z,101250.91
2022-12-16T04:50:04.537Z,101245.53
2022-12-16T04:52:51.932Z,101250.69
2022-12-16T04:55:37.147Z,101250.84
2022-12-16T04:58:23.413Z,101265.78
2022-12-16T05:01:08.760Z,101266.50
2022-12-16T05:03:54.736Z,101264.59
2022-12-16T05:06:40.447Z,101257.59
2022-12-16T05:09:27.771Z,101248.00
2022-12-16T05:12:13.004Z,101268.09
2022-12-16T05:14:58.442Z,101267.16
2022-12-16T05:17:43.868Z,101268.16
2022-12-16T05:20:30.022Z,101276.22
2022-12-16T05:23:15.821Z,101287.81
2022-12-16T05:26:01.509Z,101287.81
2022-12-16T05:28:46.803Z,101288.63
2022-12-16T05:31:42.363Z,101287.75
2022-12-16T05:34:28.507Z,101288.63
2022-12-16T05:37:13.778Z,101299.34
2022-12-16T05:40:01.404Z,101288.09
2022-12-16T05:42:46.381Z,101291.59
2022-12-16T05:45:31.821Z,101298.50
2022-12-16T05:48:17.119Z,101310.22
2022-12-16T05:51:05.315Z,101310.22
2022-12-16T05:53:50.771Z,101319.25
2022-12-16T05:56:46.164Z,101315.66
2022-12-16T05:59:30.978Z,101318.28
2022-12-16T06:02:16.019Z,101309.66
2022-12-16T06:05:03.916Z,101328.06
2022-12-16T06:07:51.256Z,101315.00
2022-12-16T06:10:36.548Z,101326.41
2022-12-16T06:13:34.802Z,101325.66
2022-12-16T06:16:22.634Z,101332.09
2022-12-16T06:19:07.761Z,101328.91
2022-12-16T06:21:52.760Z,101326.59
2022-12-16T06:24:38.296Z,101330.59
2022-12-16T06:27:23.599Z,101337.19
2022-12-16T06:30:09.377Z,101333.16
2022-12-16T06:32:54.634Z,101341.56
2022-12-16T06:35:42.019Z,101345.44
2022-12-16T06:38:27.252Z,101348.53
2022-12-16T06:41:12.078Z,101345.22
2022-12-16T06:43:57.090Z,101358.97
2022-12-16T06:46:41.882Z,101362.75
2022-12-16T06:49:29.545Z,101362.13
2022-12-16T06:52:16.399Z,101367.06
2022-12-16T06:55:04.301Z,101360.22
2022-12-16T06:57:49.431Z,101386.13
2022-12-16T07:00:34.633Z,101381.84
2022-12-16T07:03:19.791Z,101381.22
2022-12-16T07:06:10.969Z,101382.25
2022-12-16T07:08:56.202Z,101387.84
2022-12-16T07:11:41.065Z,101385.34
2022-12-16T07:14:28.499Z,101396.94
2022-12-16T07:17:17.076Z,101392.81
2022-12-16T07:20:02.904Z,101406.13
2022-12-16T07:22:51.146Z,101405.50
2022-12-16T07:25:39.354Z,101411.97
2022-12-16T07:28:24.501Z,101410.31
2022-12-16T07:31:09.344Z,101415.09
2022-12-16T07:33:54.605Z,101424.03
2022-12-16T07:36:39.708Z,101429.53
2022-12-16T07:39:24.948Z,101433.19
2022-12-16T07:42:09.979Z,101435.09
2022-12-16T07:44:55.629Z,101433.41
2022-12-16T07:47:40.944Z,101445.09
2022-12-16T07:50:26.353Z,101430.25
2022-12-16T07:53:19.032Z,101441.75
2022-12-16T07:56:04.857Z,101452.50
2022-12-16T07:58:50.511Z,101454.41
2022-12-16T08:01:35.969Z,101454.53
2022-12-16T08:04:21.384Z,101459.88
2022-12-16T08:07:06.476Z,101467.13
2022-12-16T08:09:51.278Z,101463.72
2022-12-16T08:12:36.469Z,101469.16
2022-12-16T08:15:21.718Z,101483.25
2022-12-16T08:18:09.106Z,101478.69
2022-12-16T08:20:55.393Z,101493.84
2022-12-16T08:23:42.910Z,101493.88
2022-12-16T08:26:28.364Z,101492.91
2022-12-16T08:29:42.568Z,101493.94
2022-12-16T08:32:18.803Z,101494.69
2022-12-16T08:35:04.187Z,101499.94
2022-12-16T08:37:49.276Z,101499.03
2022-12-16T08:40:37.213Z,101502.63
2022-12-16T08:43:22.849Z,101503.41
2022-12-16T08:46:12.284Z,101513.16
2022-12-16T08:48:57.590Z,101518.34
2022-12-16T08:51:42.459Z,101529.00
2022-12-16T08:54:28.817Z,101529.81
2022-12-16T08:57:14.182Z,101528.94
2022-12-16T08:59:59.169Z,101535.00
2022-12-16T09:02:44.702Z,101533.13
2022-12-16T09:05:32.529Z,101542.00
2022-12-16T09:08:19.168Z,101546.25
2022-12-16T09:11:04.759Z,101544.44
2022-12-16T09:13:49.708Z,101551.44
2022-12-16T09:16:37.145Z,101560.22
2022-12-16T09:19:22.498Z,101560.72
2022-12-16T09:22:07.457Z,101565.97
2022-12-16T09:24:53.888Z,101558.63
2022-12-16T09:27:41.062Z,101568.22
2022-12-16T09:30:26.891Z,101574.16
2022-12-16T09:33:14.240Z,101574.75
2022-12-16T09:35:59.332Z,101578.75
2022-12-16T09:38:46.849Z,101572.59
2022-12-16T09:42:03.874Z,101585.56
2022-12-16T09:44:54.326Z,101592.97
2022-12-16T09:47:58.147Z,101591.47
2022-12-16T09:50:45.971Z,101589.88
2022-12-16T09:53:38.004Z,101598.91
2022-12-16T09:56:32.125Z,101603.81
2022-12-16T09:59:20.548Z,101606.16
2022-12-16T10:02:06.378Z,101603.06
2022-12-16T10:04:54.571Z,101611.59
2022-12-16T10:07:47.576Z,101605.16
2022-12-16T10:10:40.211Z,101610.19
2022-12-16T10:13:45.613Z,101610.84
2022-12-16T10:16:47.637Z,101602.97
2022-12-16T10:19:51.137Z,101616.13
2022-12-16T10:22:48.324Z,101618.75
2022-12-16T10:25:40.793Z,101622.03
2022-12-16T10:28:35.175Z,101620.94
2022-12-16T10:31:32.120Z,101620.00
2022-12-16T10:34:17.701Z,101626.47
2022-12-16T10:37:11.035Z,101613.97
2022-12-16T10:40:03.617Z,101635.69
2022-12-16T10:42:58.197Z,101630.47
2022-12-16T10:45:54.623Z,101630.00
2022-12-16T10:48:56.283Z,101611.50
2022-12-16T10:51:47.469Z,101635.09
2022-12-16T10:54:43.315Z,101642.53
2022-12-16T10:57:39.110Z,101602.34
2022-12-16T11:00:38.968Z,101639.59
2022-12-16T11:03:42.372Z,101636.56
2022-12-16T11:06:29.004Z,101635.41
2022-12-16T11:09:34.131Z,101641.28
2022-12-16T11:12:45.558Z,101626.72
2022-12-16T11:15:42.152Z,101637.19
2022-12-16T11:18:40.492Z,101642.44
2022-12-16T11:21:38.238Z,101645.81
2022-12-16T11:24:26.268Z,101640.81
2022-12-16T11:27:16.673Z,101638.31
2022-12-16T11:30:16.606Z,101653.53
2022-12-16T11:33:07.027Z,101652.50
2022-12-16T11:35:59.946Z,101646.41
2022-12-16T11:39:08.257Z,101641.16
2022-12-16T11:42:02.939Z,101639.97
2022-12-16T11:44:54.996Z,101627.47
2022-12-16T11:47:59.229Z,101648.28
2022-12-16T11:50:47.712Z,101645.34
2022-12-16T11:53:48.446Z,101647.78
2022-12-16T11:56:39.057Z,101630.66
2022-12-16T11:59:46.663Z,101648.25
2022-12-16T12:02:39.760Z,101640.78
2022-12-16T12:05:25.566Z,101627.88
2022-12-16T12:08:36.976Z,101634.50
2022-12-16T12:11:37.953Z,101632.22
2022-12-16T12:14:33.933Z,101640.31
2022-12-16T12:17:29.410Z,101642.16
2022-12-16T12:20:45.537Z,101639.38
2022-12-16T12:23:40.947Z,101645.47
2022-12-16T12:26:37.627Z,101647.38
2022-12-16T12:29:52.525Z,101623.34
2022-12-16T12:33:25.463Z,101637.09
2022-12-16T12:36:38.652Z,101644.94
2022-12-16T12:39:23.646Z,101652.97
2022-12-16T12:42:27.147Z,101651.03
2022-12-16T12:45:40.438Z,101658.97
2022-12-16T12:48:45.396Z,101658.09
2022-12-16T12:51:30.662Z,101660.81
2022-12-16T12:54:59.169Z,101667.56
2022-12-16T12:57:47.643Z,101655.56
2022-12-16T13:00:32.884Z,101675.97
2022-12-16T13:03:32.356Z,101664.09
2022-12-16T13:06:18.584Z,101661.31
2022-12-16T13:09:09.609Z,101679.09
2022-12-16T13:11:57.462Z,101673.69
2022-12-16T13:14:51.759Z,101677.16
2022-12-16T13:17:42.311Z,101681.44
2022-12-16T13:20:50.566Z,101675.25
2022-12-16T13:23:52.114Z,101679.59
2022-12-16T13:26:39.443Z,101680.56
2022-12-16T13:29:47.415Z,101688.03
2022-12-16T13:32:36.972Z,101692.91
2022-12-16T13:35:25.638Z,101694.03
2022-12-16T13:38:22.928Z,101678.44
2022-12-16T13:41:16.146Z,101687.84
2022-12-16T13:44:13.974Z,101684.22
2022-12-16T13:47:01.137Z,101687.06
2022-12-16T13:49:55.682Z,101699.94
2022-12-16T13:52:56.368Z,101691.56
2022-12-16T13:55:47.358Z,101704.16
2022-12-16T13:58:53.204Z,101693.16
2022-12-16T14:01:46.156Z,101716.34
2022-12-16T14:04:38.976Z,101701.38
2022-12-16T14:07:24.944Z,101718.41
2022-12-16T14:10:09.890Z,101717.63
2022-12-16T14:13:08.829Z,101703.66
2022-12-16T14:16:12.816Z,101725.22
2022-12-16T14:19:14.267Z,101714.06
2022-12-16T14:22:27.548Z,101718.75
2022-12-16T14:25:12.607Z,101741.91
2022-12-16T14:27:58.612Z,101733.19
2022-12-16T14:30:44.540Z,101748.31
2022-12-16T14:33:49.097Z,101731.75
2022-12-16T14:36:46.418Z,101747.00
2022-12-16T14:39:40.097Z,101742.00
2022-12-16T14:42:41.430Z,101758.47
2022-12-16T14:45:38.940Z,101768.41
2022-12-16T14:48:46.037Z,101773.81
2022-12-16T14:51:57.063Z,101784.66
2022-12-16T14:55:01.770Z,101793.69
2022-12-16T14:57:49.750Z,101789.34
2022-12-16T15:00:40.597Z,101764.84
2022-12-16T15:03:36.195Z,101792.97
2022-12-16T15:06:24.640Z,101798.53
2022-12-16T15:09:14.933Z,101789.00
2022-12-16T15:12:02.235Z,101806.13
2022-12-16T15:14:51.759Z,101802.50
2022-12-16T15:17:39.943Z,101810.50
2022-12-16T15:20:35.233Z,101798.50
2022-12-16T15:23:20.295Z,101818.88
2022-12-16T15:26:14.495Z,101825.38
2022-12-16T15:29:02.788Z,101827.28
2022-12-16T15:31:53.327Z,101820.66
2022-12-16T15:34:38.391Z,101840.97
2022-12-16T15:37:53.396Z,101837.56
2022-12-16T15:40:52.437Z,101844.03
2022-12-16T15:43:45.062Z,101847.75
2022-12-16T15:46:56.359Z,101847.91
2022-12-16T15:50:04.104Z,101849.13
2022-12-16T15:52:52.396Z,101862.53
2022-12-16T15:56:04.699Z,101877.84
2022-12-16T15:58:59.440Z,101856.78
2022-12-16T16:01:46.593Z,101865.75
2022-12-16T16:04:38.076Z,101875.50
2022-12-16T16:07:32.345Z,101877.53
2022-12-16T16:10:35.599Z,101877.03
2022-12-16T16:13:20.769Z,101882.41
2022-12-16T16:16:07.919Z,101881.69
2022-12-16T16:18:53.434Z,101883.56
2022-12-16T16:21:38.549Z,101890.03
2022-12-16T16:24:24.083Z,101880.66
2022-12-16T16:27:11.962Z,101900.22
2022-12-16T16:29:57.241Z,101906.41
2022-12-16T16:32:42.307Z,101913.63
2022-12-16T16:35:27.437Z,101924.38
2022-12-16T16:38:16.755Z,101919.41
2022-12-16T16:41:03.831Z,101922.75
2022-12-16T16:43:54.056Z,101924.72
2022-12-16T16:46:39.029Z,101933.66
2022-12-16T16:49:31.837Z,101918.75
2022-12-16T16:52:19.624Z,101931.19
2022-12-16T16:55:04.943Z,101932.13
2022-12-16T16:57:53.009Z,101927.81
2022-12-16T17:00:37.875Z,101937.84
2022-12-16T17:03:23.272Z,101937.78
2022-12-16T17:06:11.121Z,101945.88
2022-12-16T17:08:56.096Z,101945.06
2022-12-16T17:11:41.958Z,101948.75
2022-12-16T17:14:36.739Z,101944.78
2022-12-16T17:17:22.940Z,101955.34
2022-12-16T17:20:08.540Z,101936.84
2022-12-16T17:22:53.964Z,101934.28
2022-12-16T17:25:42.569Z,101936.78
2022-12-16T17:28:29.422Z,101944.72
2022-12-16T17:31:14.924Z,101955.34
2022-12-16T17:33:59.930Z,101963.31
2022-12-16T17:36:45.221Z,101951.84
2022-12-16T17:39:30.388Z,101969.63
2022-12-16T17:42:16.200Z,101966.84
2022-12-16T17:45:01.321Z,101974.00
2022-12-16T17:47:46.229Z,101965.28
2022-12-16T17:50:33.799Z,101980.31
2022-12-16T17:53:21.222Z,101982.22
2022-12-16T17:56:07.505Z,101984.00
2022-12-16T17:58:57.079Z,101984.91
2022-12-16T18:01:43.804Z,101997.53
2022-12-16T18:04:28.853Z,101994.09
2022-12-16T18:07:16.687Z,101996.97
2022-12-16T18:10:02.408Z,102006.13
2022-12-16T18:12:48.208Z,102009.06
2022-12-16T18:15:33.374Z,102009.13
2022-12-16T18:18:18.871Z,102015.44
2022-12-16T18:21:04.139Z,102019.09
2022-12-16T18:23:51.481Z,102008.47
2022-12-16T18:26:36.700Z,102008.34
2022-12-16T18:29:24.503Z,102017.22
2022-12-16T18:32:12.085Z,102034.94
2022-12-16T18:34:59.797Z,102025.16
2022-12-16T18:37:44.911Z,102032.06
2022-12-16T18:40:32.813Z,102038.28
2022-12-16T18:43:20.964Z,102031.16
2022-12-16T18:46:17.902Z,102027.53
2022-12-16T18:49:03.001Z,102029.44
2022-12-16T18:51:48.514Z,102039.97
2022-12-16T18:54:33.450Z,102045.34
2022-12-16T18:57:18.565Z,102027.22
2022-12-16T19:00:03.981Z,102019.69
2022-12-16T19:02:49.104Z,102051.28
2022-12-16T19:05:34.465Z,102062.47
2022-12-16T19:08:19.748Z,102063.69
2022-12-16T19:11:15.497Z,102071.03
2022-12-16T19:14:00.737Z,102061.31
2022-12-16T19:16:45.537Z,102069.56
2022-12-16T19:19:30.903Z,102064.59
2022-12-16T19:22:18.675Z,102082.28
2022-12-16T19:25:03.676Z,102083.41
2022-12-16T19:27:48.902Z,102085.28
2022-12-16T19:30:34.010Z,102082.03
2022-12-16T19:33:18.958Z,102087.34
2022-12-16T19:36:06.707Z,102089.22
2022-12-16T19:38:52.039Z,102080.66
2022-12-16T19:41:40.103Z,102101.88
2022-12-16T19:44:25.283Z,102071.91
2022-12-16T19:47:10.453Z,102077.16
2022-12-16T19:49:56.173Z,102096.72
2022-12-16T19:52:41.651Z,102102.16
2022-12-16T19:55:27.036Z,102089.19
2022-12-16T19:58:11.997Z,102104.28
2022-12-16T20:00:57.477Z,102089.63
2022-12-16T20:03:42.861Z,102092.84
2022-12-16T20:06:28.300Z,102106.84
2022-12-16T20:09:14.645Z,102100.84
2022-12-16T20:12:01.032Z,102127.34
2022-12-16T20:14:46.560Z,102133.81
2022-12-16T20:17:36.723Z,102125.97
2022-12-16T20:20:21.929Z,102132.28
2022-12-16T20:23:09.695Z,102127.06
2022-12-16T20:29:02.490Z,102137.81
2022-12-16T20:31:50.703Z,102129.28
2022-12-16T20:34:39.245Z,102146.97
2022-12-16T20:37:24.565Z,102143.53
2022-12-16T20:40:11.834Z,102146.31
2022-12-16T20:42:57.049Z,102131.63
2022-12-16T20:45:42.160Z,102154.69
2022-12-16T20:48:32.374Z,102157.53
2022-12-16T20:51:26.259Z,102158.81
2022-12-16T20:54:11.862Z,102155.69
2022-12-16T20:57:12.829Z,102170.75
2022-12-16T21:00:01.072Z,102165.53
2022-12-16T21:02:46.333Z,102172.91
2022-12-16T21:05:31.601Z,102185.44
2022-12-16T21:08:16.630Z,102183.84
2022-12-16T21:11:03.385Z,102181.16
2022-12-16T21:13:49.374Z,102187.47
2022-12-16T21:16:34.906Z,102182.69
2022-12-16T21:19:25.499Z,102200.31
2022-12-16T21:22:13.204Z,102188.19
2022-12-16T21:24:58.203Z,102187.44
2022-12-16T21:27:43.328Z,102198.41
2022-12-16T21:30:29.021Z,102195.94
2022-12-16T21:33:14.450Z,102206.94
2022-12-16T21:35:59.694Z,102202.63
2022-12-16T21:38:44.469Z,102207.16
2022-12-16T21:41:32.005Z,102210.09
2022-12-16T21:44:17.120Z,102197.03
2022-12-16T21:47:02.118Z,102189.22
2022-12-16T21:49:47.393Z,102196.31
2022-12-16T21:52:32.260Z,102207.13
2022-12-16T21:55:17.654Z,102216.91
2022-12-16T21:58:02.509Z,102218.75
2022-12-16T22:00:49.025Z,102223.41
2022-12-16T22:03:35.733Z,102215.72
2022-12-16T22:06:21.282Z,102217.44
2022-12-16T22:09:06.395Z,102221.94
2022-12-16T22:11:51.751Z,102210.44
2022-12-16T22:14:36.958Z,102218.44
2022-12-16T22:17:24.849Z,102233.44
2022-12-16T22:20:10.028Z,102239.63
2022-12-16T22:22:55.291Z,102244.16
2022-12-16T22:25:41.051Z,102247.59
2022-12-16T22:28:25.932Z,102237.00
2022-12-16T22:31:16.144Z,102250.28
2022-12-16T22:34:01.846Z,102249.38
2022-12-16T22:36:47.336Z,102253.78
2022-12-16T22:39:32.839Z,102252.09
2022-12-16T22:42:17.944Z,102258.25
2022-12-16T22:45:02.907Z,102260.97
2022-12-16T22:47:49.716Z,102251.31
2022-12-16T22:50:35.199Z,102263.63
2022-12-16T22:53:21.746Z,102267.13
2022-12-16T22:56:14.531Z,102253.78
2022-12-16T22:58:59.792Z,102252.06
2022-12-16T23:01:44.903Z,102263.50
2022-12-16T23:04:30.049Z,102269.69
2022-12-16T23:07:14.999Z,102275.13
2022-12-16T23:10:00.229Z,102263.78
2022-12-16T23:12:45.380Z,102269.84
2022-12-16T23:15:31.458Z,102273.47
2022-12-16T23:18:18.372Z,102270.72
2022-12-16T23:21:09.797Z,102273.34
2022-12-16T23:23:57.548Z,102273.34
2022-12-16T23:26:43.178Z,102273.66
2022-12-16T23:29:31.169Z,102282.47
2022-12-16T23:32:16.145Z,102288.72
2022-12-16T23:35:01.269Z,102273.69
2022-12-16T23:37:46.532Z,102294.03
2022-12-16T23:40:34.226Z,102292.19
2022-12-16T23:43:19.442Z,102274.53
2022-12-16T23:46:04.624Z,102290.34
2022-12-16T23:48:49.735Z,102291.16
2022-12-16T23:51:37.182Z,102294.66
2022-12-16T23:54:22.669Z,102288.47
2022-12-16T23:57:07.924Z,102286.75
2022-12-16T23:59:54.025Z,102301.81
